Time;durP1;ratioP1;P1;durP2;ratioP2;P2;SDS_P1;SDS_P2;PMS_P1;PMS_P2;Temp;Humidity;BMP_temperature;BMP_pressure;BME280_temperature;BME280_humidity;BME280_pressure;Samples;Min_cycle;Max_cycle;Signal;HPM_P1;HPM_P2
2024/02/24 00:01:55;;;;;;;;;;;;;;;3.35;100.00;99002.22;5086797;28;19919;-75
2024/02/24 00:04:21;;;;;;;;;;;;;;;3.36;100.00;98990.53;5089964;28;19921;-75
2024/02/24 00:06:46;;;;;;;;;;;;;;;3.37;100.00;98994.03;5078924;28;20279;-74
2024/02/24 00:09:11;;;;;;;;;;;;;;;3.29;100.00;98990.50;5081153;28;19916;-74
2024/02/24 00:11:36;;;;;;;;;;;;;;;3.30;100.00;98996.66;5089728;28;19936;-75
2024/02/24 00:14:02;;;;;;;;;;;;;;;3.27;100.00;98997.03;5082248;28;19920;-74
2024/02/24 00:16:27;;;;;;;;;;;;;;;3.25;100.00;98993.75;5086542;28;19942;-75
2024/02/24 00:18:56;;;;;;;;;;;;;;;3.23;100.00;98987.81;5088107;28;19920;-75
2024/02/24 00:21:22;;;;;;;;;;;;;;;3.22;100.00;98994.13;5091732;28;19932;-75
2024/02/24 00:23:47;;;;;;;;;;;;;;;3.19;100.00;99000.69;5083560;28;19920;-74
2024/02/24 00:26:12;;;;;;;;;;;;;;;3.21;100.00;98995.16;5081375;28;21654;-74
2024/02/24 00:28:37;;;;;;;;;;;;;;;3.30;100.00;98996.66;5081903;28;20386;-74
2024/02/24 00:31:03;;;;;;;;;;;;;;;3.30;100.00;98994.00;5085266;28;20372;-75
2024/02/24 00:33:28;;;;;;;;;;;;;;;3.26;100.00;99000.72;5082818;28;19934;-75
2024/02/24 00:35:53;;;;;;;;;;;;;;;3.18;100.00;98994.53;5081400;28;19916;-75
2024/02/24 00:38:19;;;;;;;;;;;;;;;3.16;100.00;98991.25;5082837;28;19935;-75
2024/02/24 00:40:44;;;;;;;;;;;;;;;3.07;100.00;98989.75;5078378;28;19924;-74
2024/02/24 00:43:09;;;;;;;;;;;;;;;3.05;100.00;98990.97;5084670;28;19916;-75
2024/02/24 00:45:34;;;;;;;;;;;;;;;3.04;100.00;98998.09;5078808;28;19946;-75
2024/02/24 00:47:59;;;;;;;;;;;;;;;3.01;100.00;99003.81;5080604;28;19920;-75
2024/02/24 00:50:28;;;;;;;;;;;;;;;2.94;100.00;99002.94;5081313;28;19925;-73
2024/02/24 00:52:54;;;;;;;;;;;;;;;2.86;100.00;98996.75;5087328;28;19952;-74
2024/02/24 00:55:20;;;;;;;;;;;;;;;2.86;100.00;98994.09;5083899;28;19923;-74
2024/02/24 00:57:45;;;;;;;;;;;;;;;2.91;100.00;98996.19;5090020;28;19959;-73
2024/02/24 01:00:11;;;;;;;;;;;;;;;2.94;100.00;98993.13;5085180;28;19958;-75
2024/02/24 01:02:36;;;;;;;;;;;;;;;2.97;100.00;98998.06;5087663;28;20018;-74
2024/02/24 01:05:01;;;;;;;;;;;;;;;2.91;100.00;98998.00;5084953;28;19935;-75
2024/02/24 01:07:26;;;;;;;;;;;;;;;2.96;100.00;98998.28;5076160;28;20023;-74
2024/02/24 01:09:52;;;;;;;;;;;;;;;3.00;100.00;99003.00;5085885;28;19946;-75
2024/02/24 01:12:17;;;;;;;;;;;;;;;2.98;100.00;99005.03;5083875;28;20019;-75
2024/02/24 01:14:42;;;;;;;;;;;;;;;3.08;100.00;99011.84;5097122;28;20019;-74
2024/02/24 01:17:10;;;;;;;;;;;;;;;3.10;100.00;99002.66;5082494;28;19959;-75
2024/02/24 01:19:35;;;;;;;;;;;;;;;3.12;100.00;99005.94;5095348;28;19940;-74
2024/02/24 01:22:00;;;;;;;;;;;;;;;3.11;100.00;99009.63;5094151;28;19931;-74
2024/02/24 01:24:25;;;;;;;;;;;;;;;3.08;100.00;98996.72;5095475;28;19928;-74
2024/02/24 01:26:50;;;;;;;;;;;;;;;3.06;100.00;99001.41;5090021;28;19931;-75
2024/02/24 01:29:16;;;;;;;;;;;;;;;3.00;100.00;98991.56;5091441;28;20379;-74
2024/02/24 01:31:41;;;;;;;;;;;;;;;3.00;100.00;98999.53;5095978;28;20436;-74
2024/02/24 01:34:12;;;;;;;;;;;;;;;3.10;100.00;98994.69;5087240;28;20395;-75
2024/02/24 01:36:37;;;;;;;;;;;;;;;3.13;100.00;99002.28;5087265;28;19920;-75
2024/02/24 01:39:03;;;;;;;;;;;;;;;3.19;100.00;98998.81;5085559;28;19932;-75
2024/02/24 01:41:28;;;;;;;;;;;;;;;3.27;100.00;99000.50;5090437;28;20007;-74
2024/02/24 01:43:53;;;;;;;;;;;;;;;3.27;100.00;99005.00;5097823;28;20042;-75
2024/02/24 01:46:19;;;;;;;;;;;;;;;3.33;100.00;99006.91;5098233;28;20287;-74
2024/02/24 01:48:44;;;;;;;;;;;;;;;3.34;100.00;99014.69;5098990;28;19934;-74
2024/02/24 01:51:12;;;;;;;;;;;;;;;3.35;100.00;99012.84;5082436;28;20426;-74
2024/02/24 01:53:37;;;;;;;;;;;;;;;3.39;100.00;99016.75;5096181;28;19927;-74
2024/02/24 01:56:06;;;;;;;;;;;;;;;3.31;100.00;99014.25;5091765;28;19924;-75
2024/02/24 01:58:31;;;;;;;;;;;;;;;3.31;100.00;99019.56;5069573;28;19935;-74
2024/02/24 02:00:56;;;;;;;;;;;;;;;3.37;100.00;99013.44;5075118;28;19920;-75
2024/02/24 02:03:21;;;;;;;;;;;;;;;3.34;100.00;99011.22;5093958;28;19920;-75
2024/02/24 02:05:47;;;;;;;;;;;;;;;3.36;100.00;99011.81;5090008;28;19928;-74
2024/02/24 02:08:15;;;;;;;;;;;;;;;3.32;100.00;99013.25;5095980;28;19987;-75
2024/02/24 02:10:43;;;;;;;;;;;;;;;3.29;100.00;99018.94;5095752;28;20040;-74
2024/02/24 02:13:08;;;;;;;;;;;;;;;3.36;100.00;99011.00;5097330;28;19920;-74
2024/02/24 02:15:34;;;;;;;;;;;;;;;3.39;100.00;99014.09;5075057;28;19947;-74
2024/02/24 02:18:00;;;;;;;;;;;;;;;3.42;100.00;99013.69;5086892;28;19926;-75
2024/02/24 02:20:25;;;;;;;;;;;;;;;3.41;100.00;99013.91;5094681;28;19920;-75
2024/02/24 02:22:50;;;;;;;;;;;;;;;3.39;100.00;99019.41;5093718;28;20134;-75
2024/02/24 02:25:16;;;;;;;;;;;;;;;3.41;100.00;99012.06;5094402;28;19999;-74
2024/02/24 02:27:41;;;;;;;;;;;;;;;3.43;100.00;99023.31;5088964;28;19971;-75
2024/02/24 02:30:07;;;;;;;;;;;;;;;3.40;100.00;99005.09;5089383;28;19920;-75
2024/02/24 02:32:32;;;;;;;;;;;;;;;3.41;100.00;99016.56;5090393;28;20411;-74
2024/02/24 02:34:57;;;;;;;;;;;;;;;3.36;100.00;99019.78;5083193;28;19928;-75
2024/02/24 02:37:22;;;;;;;;;;;;;;;3.40;100.00;99015.72;5078290;28;19932;-74
2024/02/24 02:39:48;;;;;;;;;;;;;;;3.38;100.00;99024.94;5087233;28;19980;-74
2024/02/24 02:42:13;;;;;;;;;;;;;;;3.36;100.00;99016.31;5089104;28;19939;-75
2024/02/24 02:44:38;;;;;;;;;;;;;;;3.37;100.00;99017.97;5089417;28;19939;-75
2024/02/24 02:47:03;;;;;;;;;;;;;;;3.40;100.00;99018.38;5086457;28;20316;-74
2024/02/24 02:49:29;;;;;;;;;;;;;;;3.29;100.00;99021.59;5086297;28;20354;-75
2024/02/24 02:51:55;;;;;;;;;;;;;;;3.34;100.00;99016.53;5084388;28;20372;-74
2024/02/24 02:54:21;;;;;;;;;;;;;;;3.38;100.00;99009.78;5088237;28;19927;-74
2024/02/24 02:56:46;;;;;;;;;;;;;;;3.42;100.00;99020.88;5090216;28;19920;-74
2024/02/24 02:59:12;;;;;;;;;;;;;;;3.44;100.00;99019.66;5086328;28;20279;-74
2024/02/24 03:01:37;;;;;;;;;;;;;;;3.44;100.00;99022.31;5085822;28;19944;-74
2024/02/24 03:04:02;;;;;;;;;;;;;;;3.46;100.00;99035.41;5084178;28;19926;-75
2024/02/24 03:06:27;;;;;;;;;;;;;;;3.49;100.00;99040.34;5093819;28;19947;-75
2024/02/24 03:08:53;;;;;;;;;;;;;;;3.45;100.00;99039.91;5088740;28;20283;-75
2024/02/24 03:11:18;;;;;;;;;;;;;;;3.51;100.00;99037.50;5088705;28;19924;-75
2024/02/24 03:13:43;;;;;;;;;;;;;;;3.50;100.00;99044.63;5084581;28;19920;-74
2024/02/24 03:16:08;;;;;;;;;;;;;;;3.47;100.00;99037.88;5091707;28;19946;-75
2024/02/24 03:18:34;;;;;;;;;;;;;;;3.53;100.00;99044.25;5092577;28;19924;-74
2024/02/24 03:20:59;;;;;;;;;;;;;;;3.57;100.00;99045.50;5095474;28;20034;-75
2024/02/24 03:23:24;;;;;;;;;;;;;;;3.58;100.00;99046.31;5089754;28;20052;-75
2024/02/24 03:25:49;;;;;;;;;;;;;;;3.59;100.00;99043.47;5082932;28;20014;-75
2024/02/24 03:28:16;;;;;;;;;;;;;;;3.56;100.00;99046.53;5085110;28;19978;-74
2024/02/24 03:30:42;;;;;;;;;;;;;;;3.57;100.00;99044.69;5084010;28;20002;-74
2024/02/24 03:33:08;;;;;;;;;;;;;;;3.55;100.00;99041.38;5084969;28;20030;-75
2024/02/24 03:35:33;;;;;;;;;;;;;;;3.55;100.00;99049.38;5086633;28;20562;-75
2024/02/24 03:37:58;;;;;;;;;;;;;;;3.56;100.00;99049.19;5085763;28;20379;-75
2024/02/24 03:40:23;;;;;;;;;;;;;;;3.57;100.00;99050.00;5088972;28;20376;-75
2024/02/24 03:42:49;;;;;;;;;;;;;;;3.60;100.00;99042.47;5094457;28;20026;-74
2024/02/24 03:45:14;;;;;;;;;;;;;;;3.71;100.00;99051.72;5080490;28;20437;-74
2024/02/24 03:47:39;;;;;;;;;;;;;;;3.70;100.00;99055.41;5095971;28;20396;-75
2024/02/24 03:50:05;;;;;;;;;;;;;;;3.70;100.00;99054.56;5079681;28;19924;-75
2024/02/24 03:52:30;;;;;;;;;;;;;;;3.70;100.00;99052.75;5083925;28;19949;-75
2024/02/24 03:54:56;;;;;;;;;;;;;;;3.75;100.00;99049.50;5084842;28;20395;-75
2024/02/24 03:57:21;;;;;;;;;;;;;;;3.73;100.00;99051.53;5090257;28;19923;-76
2024/02/24 03:59:52;;;;;;;;;;;;;;;3.81;100.00;99047.88;5081365;28;19920;-76
2024/02/24 04:02:17;;;;;;;;;;;;;;;3.74;100.00;99061.16;5082536;28;19928;-76
2024/02/24 04:04:43;;;;;;;;;;;;;;;3.73;100.00;99060.31;5095927;28;20344;-75
2024/02/24 04:07:08;;;;;;;;;;;;;;;3.75;100.00;99060.94;5086984;28;19920;-75
2024/02/24 04:09:33;;;;;;;;;;;;;;;3.73;100.00;99056.84;5092393;28;19931;-75
2024/02/24 04:11:58;;;;;;;;;;;;;;;3.68;100.00;99068.09;5082847;28;19920;-75
2024/02/24 04:14:23;;;;;;;;;;;;;;;3.72;100.00;99066.66;5082884;28;19924;-75
2024/02/24 04:16:49;;;;;;;;;;;;;;;3.68;100.00;99069.91;5088780;28;19928;-73
2024/02/24 04:19:17;;;;;;;;;;;;;;;3.63;100.00;99078.50;5084698;28;20006;-74
2024/02/24 04:21:42;;;;;;;;;;;;;;;3.56;100.00;99072.28;5095590;28;19924;-74
2024/02/24 04:24:07;;;;;;;;;;;;;;;3.58;100.00;99065.78;5082616;28;19924;-73
2024/02/24 04:26:33;;;;;;;;;;;;;;;3.51;100.00;99069.41;5088768;28;19920;-73
2024/02/24 04:28:58;;;;;;;;;;;;;;;3.53;100.00;99067.41;5097561;28;19927;-73
2024/02/24 04:31:23;;;;;;;;;;;;;;;3.48;100.00;99074.13;5086792;28;19927;-73
2024/02/24 04:33:48;;;;;;;;;;;;;;;3.53;100.00;99070.06;5085335;28;20019;-73
2024/02/24 04:36:14;;;;;;;;;;;;;;;3.52;100.00;99073.72;5086272;28;19927;-73
2024/02/24 04:38:39;;;;;;;;;;;;;;;3.44;100.00;99072.03;5066472;28;19921;-73
2024/02/24 04:41:04;;;;;;;;;;;;;;;3.33;100.00;99076.88;5084573;28;19965;-73
2024/02/24 04:43:29;;;;;;;;;;;;;;;3.44;100.00;99072.84;5088498;28;20407;-73
2024/02/24 04:45:54;;;;;;;;;;;;;;;3.51;100.00;99078.22;5084784;28;20336;-73
2024/02/24 04:48:23;;;;;;;;;;;;;;;3.49;100.00;99081.06;5087213;28;19926;-73
2024/02/24 04:53:13;;;;;;;;;;;;;;;3.42;100.00;99093.50;5117129;22;19924;-73
2024/02/24 04:55:39;;;;;;;;;;;;;;;3.50;100.00;99092.53;5110366;28;19928;-72
2024/02/24 04:58:04;;;;;;;;;;;;;;;3.48;100.00;99090.06;5111233;27;20030;-74
2024/02/24 05:00:30;;;;;;;;;;;;;;;3.51;100.00;99091.50;5113713;28;20014;-75
2024/02/24 05:02:55;;;;;;;;;;;;;;;3.61;100.00;99084.03;5114329;28;19923;-74
2024/02/24 05:05:20;;;;;;;;;;;;;;;3.64;100.00;99104.91;5110712;28;19923;-74
2024/02/24 05:07:47;;;;;;;;;;;;;;;3.66;100.00;99102.06;5117923;28;20027;-74
2024/02/24 05:10:12;;;;;;;;;;;;;;;3.61;100.00;99104.47;5108288;28;19923;-74
2024/02/24 05:12:37;;;;;;;;;;;;;;;3.59;100.00;99106.50;5113366;28;19964;-74
2024/02/24 05:15:03;;;;;;;;;;;;;;;3.68;100.00;99110.66;5113099;28;19941;-74
2024/02/24 05:17:31;;;;;;;;;;;;;;;3.72;100.00;99116.41;5117499;28;19920;-74
2024/02/24 05:19:56;;;;;;;;;;;;;;;3.74;100.00;99106.41;5118136;28;20061;-74
2024/02/24 05:22:21;;;;;;;;;;;;;;;3.76;100.00;99112.34;5117849;28;19920;-73
2024/02/24 05:24:49;;;;;;;;;;;;;;;3.73;100.00;99113.53;5109100;28;19972;-74
2024/02/24 05:27:14;;;;;;;;;;;;;;;3.70;100.00;99116.63;5113568;28;19931;-73
2024/02/24 05:29:48;;;;;;;;;;;;;;;3.72;100.00;99117.22;5111780;28;19920;-72
2024/02/24 05:32:16;;;;;;;;;;;;;;;3.70;100.00;99126.44;5117528;28;19920;-74
2024/02/24 05:34:41;;;;;;;;;;;;;;;3.74;100.00;99123.19;5116071;28;20018;-73
2024/02/24 05:37:06;;;;;;;;;;;;;;;3.74;100.00;99128.50;5116141;28;20379;-73
2024/02/24 05:39:31;;;;;;;;;;;;;;;3.79;100.00;99130.59;5121272;28;20498;-73
2024/02/24 05:41:57;;;;;;;;;;;;;;;3.86;100.00;99130.63;5111970;28;20375;-74
2024/02/24 05:44:22;;;;;;;;;;;;;;;3.85;100.00;99134.31;5109912;28;20448;-73
2024/02/24 05:46:47;;;;;;;;;;;;;;;3.84;100.00;99128.16;5108523;28;20470;-75
2024/02/24 05:49:12;;;;;;;;;;;;;;;3.84;100.00;99135.34;5113422;28;19924;-76
2024/02/24 05:51:39;;;;;;;;;;;;;;;3.79;100.00;99123.44;5103251;28;19947;-74
2024/02/24 05:54:04;;;;;;;;;;;;;;;3.81;100.00;99131.19;5108768;28;19920;-76
2024/02/24 05:56:29;;;;;;;;;;;;;;;3.84;100.00;99130.00;5102202;28;20012;-77
2024/02/24 05:58:55;;;;;;;;;;;;;;;3.89;100.00;99133.72;5100769;28;19962;-75
2024/02/24 06:01:20;;;;;;;;;;;;;;;3.90;100.00;99132.69;5102235;28;19975;-77
2024/02/24 06:03:45;;;;;;;;;;;;;;;3.93;100.00;99137.66;5101702;28;20001;-75
2024/02/24 06:06:10;;;;;;;;;;;;;;;3.89;100.00;99140.88;5105372;27;19996;-75
2024/02/24 06:08:36;;;;;;;;;;;;;;;3.95;100.00;99148.09;5104987;27;19954;-75
2024/02/24 06:11:01;;;;;;;;;;;;;;;3.96;100.00;99152.41;5103022;27;19959;-75
2024/02/24 06:13:26;;;;;;;;;;;;;;;3.96;100.00;99148.91;5102813;27;19962;-75
2024/02/24 06:15:51;;;;;;;;;;;;;;;3.95;100.00;99158.72;5104993;27;19952;-75
2024/02/24 06:18:19;;;;;;;;;;;;;;;3.93;100.00;99158.94;5103570;27;19979;-75
2024/02/24 06:20:44;;;;;;;;;;;;;;;3.94;100.00;99162.41;5106254;27;20052;-74
2024/02/24 06:23:10;;;;;;;;;;;;;;;3.95;100.00;99164.06;5103013;27;20586;-75
2024/02/24 06:25:35;;;;;;;;;;;;;;;3.89;100.00;99165.66;5104866;27;20369;-75
2024/02/24 06:28:00;;;;;;;;;;;;;;;3.93;100.00;99172.25;5116035;27;19923;-75
2024/02/24 06:30:25;;;;;;;;;;;;;;;3.91;100.00;99179.59;5117559;27;20021;-75
2024/02/24 06:32:50;;;;;;;;;;;;;;;3.93;100.00;99184.72;5116569;27;20405;-76
2024/02/24 06:35:16;;;;;;;;;;;;;;;3.93;100.00;99179.41;5116406;27;20403;-74
2024/02/24 06:37:44;;;;;;;;;;;;;;;3.96;100.00;99191.53;5107377;27;19950;-75
2024/02/24 06:40:12;;;;;;;;;;;;;;;3.87;100.00;99193.50;5106729;27;20371;-74
2024/02/24 06:42:37;;;;;;;;;;;;;;;3.89;100.00;99188.78;5105160;27;19942;-74
2024/02/24 06:45:02;;;;;;;;;;;;;;;3.93;100.00;99198.03;5102110;27;20386;-74
2024/02/24 06:47:28;;;;;;;;;;;;;;;3.92;100.00;99199.06;5099003;27;20390;-74
2024/02/24 06:49:53;;;;;;;;;;;;;;;3.87;100.00;99199.63;5106449;27;20333;-76
2024/02/24 06:52:18;;;;;;;;;;;;;;;3.90;100.00;99201.09;5102786;27;19920;-75
2024/02/24 06:54:43;;;;;;;;;;;;;;;3.91;100.00;99205.41;5103683;27;19935;-76
2024/02/24 06:57:09;;;;;;;;;;;;;;;3.82;100.00;99207.38;5103371;27;19928;-75
2024/02/24 06:59:34;;;;;;;;;;;;;;;3.84;100.00;99207.19;5102865;27;19931;-75
2024/02/24 07:01:59;;;;;;;;;;;;;;;3.86;100.00;99219.28;5103483;27;20456;-76
2024/02/24 07:04:25;;;;;;;;;;;;;;;3.83;100.00;99213.53;5102023;27;19943;-76
2024/02/24 07:06:53;;;;;;;;;;;;;;;3.87;100.00;99220.13;5104325;27;20732;-75
2024/02/24 07:09:19;;;;;;;;;;;;;;;3.94;100.00;99223.66;5103655;27;19926;-76
2024/02/24 07:11:44;;;;;;;;;;;;;;;3.91;100.00;99230.19;5122118;27;20027;-76
2024/02/24 07:14:09;;;;;;;;;;;;;;;3.90;100.00;99227.69;5087720;27;20022;-75
2024/02/24 07:16:34;;;;;;;;;;;;;;;3.99;100.00;99229.22;5113709;27;20027;-75
2024/02/24 07:19:00;;;;;;;;;;;;;;;3.99;100.00;99237.22;5101486;27;19966;-74
2024/02/24 07:21:25;;;;;;;;;;;;;;;4.02;100.00;99235.97;5102465;27;19967;-74
2024/02/24 07:23:51;;;;;;;;;;;;;;;3.96;100.00;99240.25;5102825;27;19963;-74
2024/02/24 07:26:19;;;;;;;;;;;;;;;3.99;100.00;99239.03;5105032;27;19973;-73
2024/02/24 07:28:45;;;;;;;;;;;;;;;3.99;100.00;99241.69;5109050;27;20014;-76
2024/02/24 07:31:10;;;;;;;;;;;;;;;3.92;100.00;99242.50;5109279;27;19977;-74
2024/02/24 07:33:35;;;;;;;;;;;;;;;3.98;100.00;99240.88;5101723;27;19967;-75
2024/02/24 07:36:00;;;;;;;;;;;;;;;4.05;100.00;99249.75;5119201;27;20294;-73
2024/02/24 07:38:26;;;;;;;;;;;;;;;4.08;100.00;99245.88;5106476;27;20307;-73
2024/02/24 07:40:51;;;;;;;;;;;;;;;4.14;100.00;99252.25;5103328;27;20349;-73
2024/02/24 07:43:16;;;;;;;;;;;;;;;4.18;100.00;99242.88;5110792;27;19920;-77
2024/02/24 07:45:47;;;;;;;;;;;;;;;4.25;100.00;99252.53;5114962;27;19942;-73
2024/02/24 07:48:13;;;;;;;;;;;;;;;4.20;100.00;99256.81;5114658;27;19965;-74
2024/02/24 07:50:38;;;;;;;;;;;;;;;4.29;100.00;99258.28;5121637;27;20064;-77
2024/02/24 07:53:04;;;;;;;;;;;;;;;4.32;100.00;99265.91;5123232;27;19923;-80
2024/02/24 07:55:29;;;;;;;;;;;;;;;4.27;100.00;99263.00;5125736;28;19991;-73
2024/02/24 07:57:57;;;;;;;;;;;;;;;4.34;100.00;99271.88;5111604;27;19970;-74
2024/02/24 08:00:22;;;;;;;;;;;;;;;4.49;100.00;99271.75;5102517;28;19964;-74
2024/02/24 08:02:47;;;;;;;;;;;;;;;4.46;100.00;99277.47;5118637;27;19927;-74
2024/02/24 08:05:12;;;;;;;;;;;;;;;4.56;100.00;99282.44;5106887;27;19943;-74
2024/02/24 08:07:41;;;;;;;;;;;;;;;4.59;100.00;99275.91;5100971;27;19988;-74
2024/02/24 08:10:06;;;;;;;;;;;;;;;4.69;100.00;99281.69;5110644;27;19930;-73
2024/02/24 08:12:31;;;;;;;;;;;;;;;4.74;100.00;99283.78;5111341;27;19920;-73
2024/02/24 08:14:56;;;;;;;;;;;;;;;4.84;100.00;99278.88;5117480;27;19962;-73
2024/02/24 08:17:22;;;;;;;;;;;;;;;5.05;100.00;99290.47;5112637;27;19963;-74
2024/02/24 08:19:47;;;;;;;;;;;;;;;5.14;100.00;99289.25;5110927;27;19943;-74
2024/02/24 08:22:12;;;;;;;;;;;;;;;5.19;100.00;99286.00;5121668;27;19946;-73
2024/02/24 08:27:02;;;;;;;;;;;;;;;5.18;100.00;99292.38;5093825;22;19938;-73
2024/02/24 08:29:31;;;;;;;;;;;;;;;5.22;99.63;99289.09;5088064;28;19928;-73
2024/02/24 08:31:56;;;;;;;;;;;;;;;5.23;99.57;99293.41;5089484;28;19926;-73
2024/02/24 08:34:21;;;;;;;;;;;;;;;5.19;99.09;99294.81;5082310;28;19920;-73
2024/02/24 08:36:47;;;;;;;;;;;;;;;5.19;98.31;99305.50;5081581;28;19927;-73
2024/02/24 08:39:12;;;;;;;;;;;;;;;5.22;98.66;99307.75;5086367;28;19976;-73
2024/02/24 08:41:37;;;;;;;;;;;;;;;5.15;98.49;99306.91;5089885;28;19920;-73
2024/02/24 08:44:03;;;;;;;;;;;;;;;5.18;99.94;99303.03;5082870;28;19923;-73
2024/02/24 08:46:28;;;;;;;;;;;;;;;5.14;98.70;99311.44;5094455;28;20373;-74
2024/02/24 08:48:54;;;;;;;;;;;;;;;5.16;98.95;99317.38;5092616;28;19920;-74
2024/02/24 08:51:19;;;;;;;;;;;;;;;5.16;98.80;99308.56;5083463;28;20249;-74
2024/02/24 08:53:48;;;;;;;;;;;;;;;5.15;99.37;99318.41;5095588;28;20209;-73
2024/02/24 08:56:17;;;;;;;;;;;;;;;5.21;99.01;99321.28;5088501;28;19923;-73
2024/02/24 08:58:43;;;;;;;;;;;;;;;5.25;99.70;99317.19;5088390;28;19928;-73
2024/02/24 09:01:08;;;;;;;;;;;;;;;5.38;98.34;99321.75;5080061;28;19924;-72
2024/02/24 09:03:33;;;;;;;;;;;;;;;5.47;98.38;99325.91;5085499;28;20270;-74
2024/02/24 09:05:58;;;;;;;;;;;;;;;5.58;97.44;99325.31;5088251;28;19924;-74
2024/02/24 09:08:23;;;;;;;;;;;;;;;5.75;97.63;99327.59;5091958;28;19935;-74
2024/02/24 09:10:52;;;;;;;;;;;;;;;5.94;93.15;99322.50;5269346;22;19923;-74
2024/02/24 09:15:49;;;;;;;;;;;;;;;5.82;93.72;99332.94;5148614;22;19927;-75
2024/02/24 09:18:31;;;;;;;;;;;;;;;5.84;93.39;99338.91;5141474;22;19923;-75
2024/02/24 09:20:57;;;;;;;;;;;;;;;5.84;94.23;99337.06;5122658;28;19920;-75
2024/02/24 09:23:23;;;;;;;;;;;;;;;5.84;92.81;99339.72;5116583;28;19923;-75
2024/02/24 09:26:03;;;;;;;;;;;;;;;5.89;94.15;99344.47;5125743;27;20399;-75
2024/02/24 09:28:29;;;;;;;;;;;;;;;5.77;93.42;99341.56;5122570;27;19920;-75
2024/02/24 09:30:54;;;;;;;;;;;;;;;5.73;92.55;99345.66;5127307;27;19938;-75
2024/02/24 09:33:22;;;;;;;;;;;;;;;5.67;93.61;99338.47;5121311;28;19945;-75
2024/02/24 09:35:47;;;;;;;;;;;;;;;5.54;94.60;99347.28;5120297;28;19971;-75
2024/02/24 09:38:19;;;;;;;;;;;;;;;5.49;95.46;99355.88;5123433;27;20014;-74
2024/02/24 09:40:53;;;;;;;;;;;;;;;5.38;96.57;99353.78;5115177;27;20378;-75
2024/02/24 09:43:31;;;;;;;;;;;;;;;5.22;96.63;99352.28;5121731;27;19920;-75
2024/02/24 09:45:56;;;;;;;;;;;;;;;5.05;99.05;99365.13;5138983;27;19951;-74
2024/02/24 09:48:21;;;;;;;;;;;;;;;4.82;100.00;99355.56;5120661;27;20470;-74
2024/02/24 09:50:53;;;;;;;;;;;;;;;4.55;100.00;99366.09;5130536;27;19944;-74
2024/02/24 09:53:21;;;;;;;;;;;;;;;4.32;100.00;99379.66;5128130;27;19927;-73
2024/02/24 09:55:55;;;;;;;;;;;;;;;4.09;100.00;99378.81;5123576;27;19923;-75
2024/02/24 09:58:20;;;;;;;;;;;;;;;3.96;100.00;99376.03;5120273;27;19950;-74
2024/02/24 10:00:49;;;;;;;;;;;;;;;3.91;100.00;99383.75;5126986;27;20008;-77
2024/02/24 10:03:15;;;;;;;;;;;;;;;3.88;100.00;99382.31;5127849;27;19923;-77
2024/02/24 10:05:41;;;;;;;;;;;;;;;3.82;100.00;99383.06;5124725;27;20265;-76
2024/02/24 10:08:06;;;;;;;;;;;;;;;3.90;100.00;99387.44;5101536;22;20062;-76
2024/02/24 10:10:31;;;;;;;;;;;;;;;4.04;100.00;99391.91;5085367;28;20019;-77
2024/02/24 10:12:57;;;;;;;;;;;;;;;4.20;100.00;99395.31;5088353;28;19920;-77
2024/02/24 10:15:22;;;;;;;;;;;;;;;4.29;100.00;99396.00;5084519;28;19921;-77
2024/02/24 10:17:48;;;;;;;;;;;;;;;4.34;100.00;99402.41;5070225;28;20347;-77
2024/02/24 10:20:13;;;;;;;;;;;;;;;4.25;100.00;99388.41;5087632;28;19928;-76
2024/02/24 10:22:38;;;;;;;;;;;;;;;4.19;100.00;99405.13;5090240;28;20007;-76
2024/02/24 10:25:05;;;;;;;;;;;;;;;4.10;100.00;99399.09;5085492;28;19920;-77
2024/02/24 10:27:30;;;;;;;;;;;;;;;4.04;100.00;99412.38;5087865;28;19920;-77
2024/02/24 10:29:56;;;;;;;;;;;;;;;3.94;100.00;99413.53;5084002;28;19928;-77
2024/02/24 10:32:21;;;;;;;;;;;;;;;3.86;100.00;99415.47;5080644;28;19920;-77
2024/02/24 10:34:46;;;;;;;;;;;;;;;3.75;100.00;99420.25;5066673;28;20291;-77
2024/02/24 10:37:11;;;;;;;;;;;;;;;3.72;100.00;99425.94;5082088;28;20047;-76
2024/02/24 10:39:37;;;;;;;;;;;;;;;3.48;100.00;99411.97;5064969;28;20006;-76
2024/02/24 10:42:06;;;;;;;;;;;;;;;3.25;100.00;99437.88;5059635;28;20337;-76
2024/02/24 10:44:35;;;;;;;;;;;;;;;3.08;100.00;99442.56;5079037;28;19924;-76
2024/02/24 10:47:01;;;;;;;;;;;;;;;2.99;100.00;99457.78;5067348;28;20021;-77
2024/02/24 10:49:29;;;;;;;;;;;;;;;2.94;100.00;99468.13;5085073;28;19989;-77
2024/02/24 10:51:55;;;;;;;;;;;;;;;2.96;100.00;99452.81;5061433;28;20482;-76
2024/02/24 10:54:21;;;;;;;;;;;;;;;3.05;100.00;99462.34;5086930;28;19971;-76
2024/02/24 10:56:57;;;;;;;;;;;;;;;3.19;100.00;99456.19;5065947;28;19920;-74
2024/02/24 10:59:26;;;;;;;;;;;;;;;3.24;100.00;99460.16;5056571;28;19920;-75
2024/02/24 11:01:51;;;;;;;;;;;;;;;3.27;100.00;99467.78;5083865;28;19920;-76
2024/02/24 11:04:16;;;;;;;;;;;;;;;3.44;100.00;99476.41;5079891;28;19986;-76
2024/02/24 11:06:45;;;;;;;;;;;;;;;3.60;100.00;99472.69;5089832;28;19924;-76
2024/02/24 11:09:35;;;;;;;;;;;;;;;3.75;100.00;99470.03;5150442;22;19923;-76
2024/02/24 11:12:25;;;;;;;;;;;;;;;4.12;100.00;99475.34;5146270;27;19930;-76
2024/02/24 11:14:52;;;;;;;;;;;;;;;4.53;100.00;99480.84;5139613;27;19928;-77
2024/02/24 11:17:50;;;;;;;;;;;;;;;4.94;100.00;99473.19;5145667;27;19919;-77
2024/02/24 11:23:26;;;;;;;;;;;;;;;5.42;100.00;99472.47;5154466;27;19938;-77
2024/02/24 11:37:28;;;;;;;;;;;;;;;5.45;100.00;99477.41;5085964;28;19978;-78
2024/02/24 11:42:40;;;;;;;;;;;;;;;5.49;100.00;99472.50;5110752;28;19946;-77
2024/02/24 11:45:24;;;;;;;;;;;;;;;5.36;100.00;99467.91;5101672;28;19928;-77
2024/02/24 11:47:55;;;;;;;;;;;;;;;5.29;99.02;99473.22;5104220;28;19983;-77
2024/02/24 11:53:31;;;;;;;;;;;;;;;5.67;98.29;99479.97;5127668;28;19945;-78
2024/02/24 11:55:59;;;;;;;;;;;;;;;6.08;93.42;99476.44;5108488;28;20033;-77
2024/02/24 11:58:27;;;;;;;;;;;;;;;5.98;92.94;99482.13;5117626;28;19920;-77
2024/02/24 12:01:17;;;;;;;;;;;;;;;5.78;93.40;99492.75;5107487;28;19934;-77
2024/02/24 12:04:18;;;;;;;;;;;;;;;5.91;94.75;99492.00;5044177;28;20332;-77
2024/02/24 12:06:52;;;;;;;;;;;;;;;6.23;90.44;99489.66;5074522;28;20030;-78
2024/02/24 12:09:18;;;;;;;;;;;;;;;6.39;89.48;99490.28;5056297;28;19921;-78
2024/02/24 12:11:43;;;;;;;;;;;;;;;6.21;87.00;99484.50;5045964;28;19925;-78
2024/02/24 12:14:18;;;;;;;;;;;;;;;5.93;88.01;99484.59;5044589;28;20100;-77
2024/02/24 12:16:58;;;;;;;;;;;;;;;5.68;90.22;99487.78;5049415;28;19920;-78
2024/02/24 12:22:37;;;;;;;;;;;;;;;3.82;100.00;99510.84;5255836;22;19934;-81
2024/02/24 12:25:13;;;;;;;;;;;;;;;3.23;100.00;99512.53;5116849;28;19951;-78
2024/02/24 12:27:38;;;;;;;;;;;;;;;2.96;100.00;99513.94;5107618;28;19920;-78
2024/02/24 12:30:04;;;;;;;;;;;;;;;3.08;100.00;99504.53;5121141;28;19915;-78
2024/02/24 12:32:29;;;;;;;;;;;;;;;3.75;100.00;99507.28;5107257;28;19919;-78
2024/02/24 12:35:09;;;;;;;;;;;;;;;5.72;100.00;99509.56;5101317;28;19920;-77
2024/02/24 12:37:34;;;;;;;;;;;;;;;6.98;91.72;99515.41;5102665;28;19940;-78
2024/02/24 12:40:00;;;;;;;;;;;;;;;7.06;88.68;99509.84;5113908;22;19919;-78
2024/02/24 12:42:25;;;;;;;;;;;;;;;7.34;85.10;99506.13;5087337;28;19924;-78
2024/02/24 12:44:51;;;;;;;;;;;;;;;6.97;87.31;99516.44;5107352;28;19920;-78
2024/02/24 12:47:25;;;;;;;;;;;;;;;7.00;89.24;99513.38;5107712;28;19922;-78
2024/02/24 12:50:09;;;;;;;;;;;;;;;6.20;89.87;99516.78;5104285;28;19971;-78
2024/02/24 12:52:44;;;;;;;;;;;;;;;5.45;93.12;99517.44;5109293;28;20052;-78
2024/02/24 12:55:24;;;;;;;;;;;;;;;5.01;96.03;99517.56;5111996;28;19920;-78
2024/02/24 12:57:55;;;;;;;;;;;;;;;5.01;98.28;99504.22;5100481;28;20019;-78
2024/02/24 13:00:24;;;;;;;;;;;;;;;5.03;95.71;99508.53;5099460;28;19928;-79
2024/02/24 13:03:02;;;;;;;;;;;;;;;5.17;93.47;99504.94;5099913;28;19919;-77
2024/02/24 13:05:27;;;;;;;;;;;;;;;5.23;94.28;99506.00;5100774;28;19920;-78
2024/02/24 13:08:01;;;;;;;;;;;;;;;5.34;94.22;99515.31;5092643;28;19935;-77
2024/02/24 13:10:26;;;;;;;;;;;;;;;5.25;96.19;99520.81;5094781;28;19927;-77
2024/02/24 13:12:57;;;;;;;;;;;;;;;5.21;98.51;99519.53;5107415;28;20345;-78
2024/02/24 13:15:24;;;;;;;;;;;;;;;5.16;97.04;99527.31;5095686;28;20020;-77
2024/02/24 13:17:49;;;;;;;;;;;;;;;4.83;100.00;99541.19;5106890;28;19947;-78